Time;durP1;ratioP1;P1;durP2;ratioP2;P2;SDS_P1;SDS_P2;PMS_P1;PMS_P2;Temp;Humidity;BMP_temperature;BMP_pressure;BME280_temperature;BME280_humidity;BME280_pressure;Samples;Min_cycle;Max_cycle;Signal;HPM_P1;HPM_P2
2021/01/21 00:00:57;;;;;;;24.15;13.25;;;1.00;99.90;;;;;;4986970;28;20484;-75
2021/01/21 00:03:22;;;;;;;24.05;13.43;;;1.00;99.90;;;;;;4994114;28;20030;-74
2021/01/21 00:05:48;;;;;;;25.80;13.15;;;1.00;99.90;;;;;;4994281;28;20045;-74
2021/01/21 00:08:14;;;;;;;19.33;11.90;;;1.10;99.90;;;;;;4994962;28;20030;-75
2021/01/21 00:10:39;;;;;;;19.73;12.65;;;1.10;99.90;;;;;;4994141;28;20041;-74
2021/01/21 00:13:05;;;;;;;22.88;13.23;;;1.20;99.90;;;;;;4993735;28;20041;-74
2021/01/21 00:15:31;;;;;;;26.40;14.02;;;1.20;99.90;;;;;;4993797;28;20026;-74
2021/01/21 00:17:56;;;;;;;19.20;11.57;;;1.30;99.90;;;;;;4994620;28;20384;-75
2021/01/21 00:20:22;;;;;;;26.83;16.02;;;1.20;99.90;;;;;;4993294;28;20188;-75
2021/01/21 00:22:48;;;;;;;25.23;14.80;;;1.00;99.90;;;;;;4994420;28;20022;-75
2021/01/21 00:25:14;;;;;;;27.58;15.50;;;0.90;99.90;;;;;;4993481;28;20022;-76
2021/01/21 00:27:39;;;;;;;32.03;16.15;;;1.00;99.90;;;;;;4994326;28;20054;-74
2021/01/21 00:30:09;;;;;;;28.52;14.85;;;0.80;99.90;;;;;;4993316;28;20116;-74
2021/01/21 00:32:35;;;;;;;28.08;14.77;;;0.80;99.90;;;;;;4993309;28;20058;-74
2021/01/21 00:35:01;;;;;;;23.02;13.52;;;0.90;99.90;;;;;;4993324;28;20041;-75
2021/01/21 00:37:26;;;;;;;26.65;13.88;;;1.00;99.90;;;;;;4993294;28;20033;-75
2021/01/21 00:39:52;;;;;;;21.63;13.40;;;1.00;99.90;;;;;;4985492;28;20042;-74
2021/01/21 00:42:17;;;;;;;24.45;12.52;;;1.10;99.90;;;;;;4993953;28;20097;-75
2021/01/21 00:44:43;;;;;;;24.25;13.15;;;1.00;99.90;;;;;;4992790;28;20121;-76
2021/01/21 00:47:09;;;;;;;23.65;13.63;;;0.90;99.90;;;;;;4994113;28;20098;-74
2021/01/21 00:49:34;;;;;;;26.30;14.43;;;1.00;99.90;;;;;;4993016;28;20545;-74
2021/01/21 00:52:00;;;;;;;25.45;14.80;;;1.00;99.90;;;;;;4993856;28;20101;-75
2021/01/21 00:54:25;;;;;;;30.73;14.90;;;0.90;99.90;;;;;;4993365;28;20045;-74
2021/01/21 00:56:51;;;;;;;27.17;15.00;;;1.00;99.90;;;;;;4993052;28;20036;-75
2021/01/21 00:59:17;;;;;;;25.05;14.30;;;1.00;99.90;;;;;;4993455;28;20034;-75
2021/01/21 01:01:42;;;;;;;25.15;14.43;;;1.00;99.90;;;;;;4993372;28;20034;-74
2021/01/21 01:04:08;;;;;;;26.33;14.52;;;1.00;99.90;;;;;;4993538;28;20034;-74
2021/01/21 01:06:33;;;;;;;28.90;15.90;;;0.90;99.90;;;;;;4992198;28;20136;-73
2021/01/21 01:08:59;;;;;;;27.90;15.63;;;0.90;99.90;;;;;;4993011;28;20037;-74
2021/01/21 01:11:25;;;;;;;24.58;13.75;;;1.00;99.90;;;;;;4993040;28;20022;-74
2021/01/21 01:13:50;;;;;;;23.15;13.73;;;0.90;99.90;;;;;;4993878;28;20086;-74
2021/01/21 01:16:16;;;;;;;20.65;13.10;;;0.90;99.90;;;;;;4992841;28;20476;-74
2021/01/21 01:18:42;;;;;;;23.83;14.20;;;0.90;99.90;;;;;;4993245;28;20564;-75
2021/01/21 01:21:07;;;;;;;20.45;12.27;;;1.00;99.90;;;;;;4992714;28;20056;-74
2021/01/21 01:23:33;;;;;;;20.77;12.75;;;0.90;99.90;;;;;;4992807;28;20022;-74
2021/01/21 01:25:59;;;;;;;22.02;13.02;;;1.10;99.90;;;;;;4992925;28;20026;-75
2021/01/21 01:28:24;;;;;;;23.13;14.13;;;1.10;99.90;;;;;;4993157;28;20104;-74
2021/01/21 01:30:50;;;;;;;22.08;13.10;;;1.10;99.90;;;;;;4992317;28;20030;-74
2021/01/21 01:33:15;;;;;;;21.30;12.88;;;1.10;99.90;;;;;;4993042;28;20077;-74
2021/01/21 01:35:41;;;;;;;27.35;14.82;;;1.10;99.90;;;;;;4992688;28;20065;-74
2021/01/21 01:38:07;;;;;;;23.08;14.60;;;1.00;99.90;;;;;;4991987;28;20488;-75
2021/01/21 01:40:32;;;;;;;25.52;14.50;;;1.00;99.90;;;;;;4991665;28;20018;-74
2021/01/21 01:42:58;;;;;;;26.50;15.48;;;1.00;99.90;;;;;;4992612;28;20038;-74
2021/01/21 01:45:24;;;;;;;27.35;14.43;;;1.00;99.90;;;;;;4993254;28;20469;-75
2021/01/21 01:47:50;;;;;;;24.85;14.90;;;1.00;99.90;;;;;;4980711;28;20916;-75
2021/01/21 01:50:16;;;;;;;26.23;14.77;;;1.00;99.90;;;;;;4991401;28;20034;-74
2021/01/21 01:52:42;;;;;;;22.35;13.88;;;1.00;99.90;;;;;;4992423;28;20027;-74
2021/01/21 01:55:15;;;;;;;22.33;14.07;;;0.90;99.90;;;;;;4992538;28;20501;-74
2021/01/21 01:57:43;;;;;;;19.83;12.65;;;1.00;99.90;;;;;;4991374;28;20037;-75
2021/01/21 02:00:09;;;;;;;23.45;14.02;;;1.00;99.90;;;;;;4992156;28;20030;-76
2021/01/21 02:02:35;;;;;;;22.67;13.73;;;1.00;99.90;;;;;;4991974;28;20026;-75
2021/01/21 02:05:01;;;;;;;24.92;14.80;;;1.10;99.90;;;;;;4992339;28;20504;-74
2021/01/21 02:07:28;;;;;;;22.27;13.77;;;1.00;99.90;;;;;;4991759;28;20030;-75
2021/01/21 02:09:55;;;;;;;21.38;13.15;;;1.00;99.90;;;;;;4991438;28;20042;-74
2021/01/21 02:12:52;;;;;;;21.58;13.52;;;1.10;99.90;;;;;;4992086;28;20058;-75
2021/01/21 02:15:37;;;;;;;25.13;13.45;;;1.10;99.90;;;;;;4991899;28;20023;-74
2021/01/21 02:18:22;;;;;;;;;;;1.10;99.90;;;;;;4991967;28;20022;-74
2021/01/21 02:21:22;;;;;;;21.83;12.15;;;1.10;99.90;;;;;;4986785;28;19917;-75
2021/01/21 02:24:24;;;;;;;23.20;13.75;;;1.10;99.90;;;;;;4991372;28;20026;-75
2021/01/21 02:26:58;;;;;;;24.48;13.30;;;1.00;99.90;;;;;;4991867;28;20034;-75
2021/01/21 02:29:25;;;;;;;23.67;13.57;;;1.00;99.90;;;;;;4992329;28;20073;-75
2021/01/21 02:32:06;;;;;;;21.60;13.55;;;1.10;99.90;;;;;;4990915;28;20045;-74
2021/01/21 02:34:55;;;;;;;22.85;13.90;;;1.10;99.90;;;;;;4991797;28;20054;-75
2021/01/21 02:37:26;;;;;;;23.17;13.85;;;1.10;99.90;;;;;;4991900;28;20238;-74
2021/01/21 02:39:57;;;;;;;21.80;13.45;;;1.10;99.90;;;;;;4992429;28;20038;-75
2021/01/21 02:42:24;;;;;;;23.98;13.45;;;1.00;99.90;;;;;;4977367;28;20034;-75
2021/01/21 02:44:50;;;;;;;23.05;14.35;;;0.90;99.90;;;;;;4989914;28;20023;-76
2021/01/21 02:47:21;;;;;;;24.65;13.07;;;1.00;99.90;;;;;;4991617;28;20040;-74
2021/01/21 02:49:51;;;;;;;24.27;13.90;;;1.10;99.90;;;;;;4991307;28;20041;-76
2021/01/21 02:52:19;;;;;;;27.10;16.20;;;1.10;99.90;;;;;;4990864;28;20049;-76
2021/01/21 02:55:09;;;;;;;26.30;15.45;;;0.90;99.90;;;;;;4990897;28;20030;-77
2021/01/21 02:57:44;;;;;;;27.30;15.57;;;0.90;99.90;;;;;;4979796;28;20066;-75
2021/01/21 03:00:11;;;;;;;27.13;15.77;;;0.90;99.90;;;;;;4986096;28;20450;-75
2021/01/21 03:02:43;;;;;;;27.38;15.60;;;0.90;99.90;;;;;;4991301;28;20137;-74
2021/01/21 03:05:12;;;;;;;25.90;15.35;;;1.00;99.90;;;;;;4990311;28;20031;-75
2021/01/21 03:07:38;;;;;;;25.75;16.15;;;1.00;99.90;;;;;;4990903;28;20031;-75
2021/01/21 03:10:09;;;;;;;30.95;17.08;;;1.00;99.90;;;;;;4991466;28;20031;-75
2021/01/21 03:12:35;;;;;;;24.33;14.13;;;1.10;99.90;;;;;;4991678;28;20034;-74
2021/01/21 03:15:01;;;;;;;27.30;15.63;;;1.10;99.90;;;;;;4991190;28;20037;-75
2021/01/21 03:17:29;;;;;;;24.92;14.95;;;1.10;99.90;;;;;;4991294;28;20042;-75
2021/01/21 03:19:54;;;;;;;24.25;15.35;;;1.10;99.90;;;;;;4991407;28;20046;-75
2021/01/21 03:22:20;;;;;;;21.55;13.55;;;1.10;99.90;;;;;;4991043;28;20034;-79
2021/01/21 03:24:46;;;;;;;25.35;14.75;;;1.00;99.90;;;;;;4990004;28;20034;-78
2021/01/21 03:27:12;;;;;;;25.20;14.00;;;1.10;99.90;;;;;;4990801;28;20053;-74
2021/01/21 03:29:38;;;;;;;23.52;14.10;;;1.10;99.90;;;;;;4993430;28;20029;-75
2021/01/21 03:32:05;;;;;;;26.70;15.13;;;1.10;99.90;;;;;;4995779;28;20177;-75
2021/01/21 03:34:31;;;;;;;26.40;15.98;;;1.00;99.90;;;;;;4995044;28;20448;-75
2021/01/21 03:36:56;;;;;;;22.48;16.15;;;0.90;99.90;;;;;;4994953;28;20034;-75
2021/01/21 03:39:22;;;;;;;30.00;17.33;;;0.90;99.90;;;;;;4994143;28;20042;-75
2021/01/21 03:41:51;;;;;;;26.88;16.80;;;1.00;99.90;;;;;;4995213;28;20042;-75
2021/01/21 03:44:18;;;;;;;30.75;17.98;;;0.90;99.90;;;;;;4995109;28;20037;-75
2021/01/21 03:46:44;;;;;;;30.27;16.52;;;0.90;99.90;;;;;;4994309;28;20034;-76
2021/01/21 03:49:10;;;;;;;24.10;15.18;;;1.00;99.90;;;;;;4994259;28;20026;-75
2021/01/21 03:51:36;;;;;;;28.00;16.17;;;0.90;99.90;;;;;;4994086;28;20026;-75
2021/01/21 03:54:02;;;;;;;24.15;15.13;;;0.90;99.90;;;;;;4995103;28;20069;-75
2021/01/21 03:56:28;;;;;;;23.50;15.00;;;0.90;99.90;;;;;;4991832;28;20019;-75
2021/01/21 03:58:53;;;;;;;24.88;15.68;;;0.90;99.90;;;;;;4979845;28;20041;-75
2021/01/21 04:01:19;;;;;;;26.77;14.52;;;0.90;99.90;;;;;;4994414;28;20389;-75
2021/01/21 04:03:45;;;;;;;24.95;15.13;;;0.70;99.90;;;;;;4979345;28;20035;-76
2021/01/21 04:06:11;;;;;;;27.00;14.45;;;0.70;99.90;;;;;;4981844;28;20038;-75
2021/01/21 04:08:37;;;;;;;24.77;15.05;;;0.70;99.90;;;;;;4988327;28;20045;-75
2021/01/21 04:11:03;;;;;;;27.13;16.38;;;0.70;99.90;;;;;;4987793;28;20034;-77
2021/01/21 04:13:29;;;;;;;27.63;15.55;;;0.80;99.90;;;;;;4988275;28;20026;-74
2021/01/21 04:15:54;;;;;;;25.13;15.40;;;0.80;99.90;;;;;;4987896;28;20097;-76
2021/01/21 04:18:20;;;;;;;28.15;16.40;;;0.90;99.90;;;;;;4988189;28;20026;-80
2021/01/21 04:20:46;;;;;;;20.80;14.23;;;0.80;99.90;;;;;;4987794;28;20170;-76
2021/01/21 04:23:11;;;;;;;25.02;13.15;;;0.80;99.90;;;;;;4988924;28;20057;-75
2021/01/21 04:25:37;;;;;;;24.73;14.55;;;0.80;99.90;;;;;;4988042;28;20027;-75
2021/01/21 04:28:03;;;;;;;22.63;14.52;;;0.70;99.90;;;;;;4988540;28;20097;-76
2021/01/21 04:30:29;;;;;;;25.75;14.30;;;0.70;99.90;;;;;;4987291;28;20473;-75
2021/01/21 04:32:55;;;;;;;24.02;15.75;;;0.80;99.90;;;;;;4988337;28;20628;-81
2021/01/21 04:35:21;;;;;;;27.60;15.35;;;0.80;99.90;;;;;;4987715;28;20034;-76
2021/01/21 04:37:46;;;;;;;22.92;14.63;;;0.80;99.90;;;;;;4988401;28;20038;-76
2021/01/21 04:40:12;;;;;;;31.73;17.10;;;0.80;99.90;;;;;;4986134;28;20563;-75
2021/01/21 04:42:38;;;;;;;29.00;18.73;;;0.90;99.90;;;;;;4987452;28;20030;-75
2021/01/21 04:45:05;;;;;;;25.50;16.27;;;0.90;99.90;;;;;;4987424;28;20038;-78
2021/01/21 04:47:32;;;;;;;25.35;15.45;;;0.90;99.90;;;;;;4988397;28;20088;-76
2021/01/21 04:49:59;;;;;;;37.33;19.25;;;0.90;99.90;;;;;;4986987;28;20093;-77
2021/01/21 04:52:26;;;;;;;31.13;16.95;;;0.90;99.90;;;;;;4986982;28;20031;-80
2021/01/21 04:54:56;;;;;;;25.63;16.42;;;0.90;99.90;;;;;;4987061;28;20038;-76
2021/01/21 04:57:47;;;;;;;24.88;16.10;;;0.90;99.90;;;;;;4985202;28;20559;-77
2021/01/21 05:00:13;;;;;;;26.92;17.80;;;0.90;99.90;;;;;;4982865;28;20062;-79
2021/01/21 05:02:40;;;;;;;28.52;16.63;;;0.90;99.90;;;;;;4986873;28;20042;-75
2021/01/21 05:05:10;;;;;;;32.22;17.42;;;0.90;99.90;;;;;;4986706;28;20041;-76
2021/01/21 05:07:39;;;;;;;30.05;17.45;;;0.80;99.90;;;;;;4987115;28;20026;-75
2021/01/21 05:10:09;;;;;;;26.42;16.63;;;0.90;99.90;;;;;;4987182;28;20547;-76
2021/01/21 05:12:36;;;;;;;28.40;16.92;;;1.00;99.90;;;;;;4987512;28;20085;-76
2021/01/21 05:15:03;;;;;;;24.38;16.05;;;0.90;99.90;;;;;;4987361;28;20564;-77
2021/01/21 05:17:28;;;;;;;27.75;15.43;;;1.00;99.90;;;;;;4987332;28;20041;-75
2021/01/21 05:19:54;;;;;;;31.15;17.02;;;0.90;99.90;;;;;;4980544;28;20039;-76
2021/01/21 05:22:21;;;;;;;27.05;18.05;;;0.90;99.90;;;;;;4984938;28;20061;-74
2021/01/21 05:24:47;;;;;;;30.48;17.27;;;0.90;99.90;;;;;;4987167;28;20538;-77
2021/01/21 05:27:15;;;;;;;28.08;16.42;;;0.80;99.90;;;;;;4987085;28;20196;-79
2021/01/21 05:29:45;;;;;;;29.80;17.27;;;0.80;99.90;;;;;;4986553;28;20037;-75
2021/01/21 05:32:14;;;;;;;26.92;14.82;;;0.80;99.90;;;;;;4987870;28;20073;-76
2021/01/21 05:34:40;;;;;;;26.58;16.23;;;0.80;99.90;;;;;;4986934;28;20121;-76
2021/01/21 05:37:11;;;;;;;27.98;15.82;;;0.80;99.90;;;;;;4986959;28;20101;-76
2021/01/21 05:39:38;;;;;;;30.08;16.55;;;0.80;99.90;;;;;;4985542;28;20045;-76
2021/01/21 05:42:05;;;;;;;28.92;15.90;;;0.90;99.90;;;;;;4986664;28;20114;-76
2021/01/21 05:44:31;;;;;;;27.83;16.13;;;0.90;99.90;;;;;;4987157;28;20513;-80
2021/01/21 05:47:02;;;;;;;26.17;16.42;;;0.90;99.90;;;;;;4986925;28;20022;-76
2021/01/21 05:49:28;;;;;;;25.42;13.23;;;0.90;99.90;;;;;;4986983;28;20057;-75
2021/01/21 05:51:56;;;;;;;25.38;16.90;;;0.80;99.90;;;;;;4986150;28;20034;-75
2021/01/21 05:54:27;;;;;;;26.73;15.13;;;0.80;99.90;;;;;;4986010;28;20070;-77
2021/01/21 05:56:54;;;;;;;22.63;13.82;;;0.90;99.90;;;;;;4972796;28;20026;-76
2021/01/21 05:59:23;;;;;;;27.10;14.95;;;0.90;99.90;;;;;;4984603;28;20140;-77
2021/01/21 06:01:49;;;;;;;24.48;15.35;;;0.90;99.90;;;;;;4985895;28;20034;-75
2021/01/21 06:04:17;;;;;;;29.95;15.77;;;0.90;99.90;;;;;;4986045;28;20033;-75
2021/01/21 06:06:43;;;;;;;24.02;14.73;;;0.90;99.90;;;;;;4986113;28;20032;-81
2021/01/21 06:09:15;;;;;;;23.05;15.57;;;0.90;99.90;;;;;;4986088;28;20054;-76
2021/01/21 06:11:44;;;;;;;26.50;15.55;;;0.90;99.90;;;;;;4985290;28;20200;-76
2021/01/21 06:14:11;;;;;;;26.25;16.33;;;0.90;99.90;;;;;;4985902;28;20030;-75
2021/01/21 06:16:40;;;;;;;25.25;13.93;;;0.90;99.90;;;;;;4986280;28;20054;-75
2021/01/21 06:19:06;;;;;;;23.65;13.35;;;0.90;99.90;;;;;;4985524;28;20639;-75
2021/01/21 06:21:35;;;;;;;22.38;14.32;;;0.80;99.90;;;;;;4985904;28;20053;-74
2021/01/21 06:24:05;;;;;;;26.40;16.02;;;0.90;99.90;;;;;;4985830;28;20092;-77
2021/01/21 06:26:47;;;;;;;23.38;14.90;;;0.90;99.90;;;;;;4985873;28;20434;-75
2021/01/21 06:29:18;;;;;;;22.92;14.65;;;0.90;99.90;;;;;;4988629;28;20022;-74
2021/01/21 06:31:47;;;;;;;26.85;15.75;;;1.00;99.90;;;;;;4985181;28;20034;-75
2021/01/21 06:34:24;;;;;;;23.63;15.05;;;0.90;99.90;;;;;;4984951;28;20050;-75
2021/01/21 06:37:06;;;;;;;25.50;15.85;;;0.90;99.90;;;;;;4980260;28;20637;-74
2021/01/21 06:39:34;;;;;;;22.23;14.82;;;0.90;99.90;;;;;;4984637;28;20042;-74
2021/01/21 06:42:01;;;;;;;22.60;14.70;;;0.80;99.90;;;;;;4971997;28;20098;-74
2021/01/21 06:44:27;;;;;;;22.65;14.18;;;0.80;99.90;;;;;;4971556;28;20027;-74
2021/01/21 06:46:53;;;;;;;24.27;16.95;;;0.80;99.90;;;;;;4984191;28;20026;-74
2021/01/21 06:49:20;;;;;;;28.40;16.17;;;0.80;99.90;;;;;;4984267;28;20022;-73
2021/01/21 06:51:50;;;;;;;21.67;14.52;;;0.90;99.90;;;;;;4983591;28;20133;-74
2021/01/21 06:54:17;;;;;;;25.50;16.52;;;0.90;99.90;;;;;;4983600;28;20026;-74
2021/01/21 06:56:42;;;;;;;30.20;16.70;;;0.90;99.90;;;;;;4984420;28;20610;-73
2021/01/21 06:59:08;;;;;;;23.88;17.55;;;0.90;99.90;;;;;;4983585;28;20026;-74
2021/01/21 07:01:39;;;;;;;31.23;19.58;;;0.90;99.90;;;;;;4984173;28;20512;-74
2021/01/21 07:04:08;;;;;;;34.50;19.40;;;0.90;99.90;;;;;;4980874;28;20038;-74
2021/01/21 07:06:52;;;;;;;33.28;17.35;;;0.90;99.90;;;;;;4982581;28;20125;-74
2021/01/21 07:09:20;;;;;;;27.15;16.23;;;0.90;99.90;;;;;;4983846;28;20038;-72
2021/01/21 07:11:47;;;;;;;27.73;16.23;;;0.80;99.90;;;;;;4983787;28;20058;-73
2021/01/21 07:14:17;;;;;;;25.52;16.70;;;0.90;99.90;;;;;;4983885;28;20065;-73
2021/01/21 07:16:48;;;;;;;27.23;17.05;;;0.90;99.90;;;;;;4983023;28;20040;-73
2021/01/21 07:19:15;;;;;;;28.35;15.20;;;0.80;99.90;;;;;;4983329;28;20071;-73
2021/01/21 07:21:51;;;;;;;27.30;16.63;;;0.90;99.90;;;;;;4984276;28;20042;-73
2021/01/21 07:24:21;;;;;;;26.55;17.85;;;0.80;99.90;;;;;;4983783;28;20057;-76
2021/01/21 07:26:52;;;;;;;31.75;16.77;;;0.80;99.90;;;;;;4983052;28;20443;-73
2021/01/21 07:29:19;;;;;;;27.08;16.35;;;0.80;99.90;;;;;;4983994;28;20053;-73
2021/01/21 07:31:55;;;;;;;25.85;16.15;;;0.80;99.90;;;;;;4983887;28;20030;-73
2021/01/21 07:34:29;;;;;;;22.88;17.15;;;0.80;99.90;;;;;;4983266;28;20054;-73
2021/01/21 07:37:17;;;;;;;27.95;18.35;;;0.70;99.90;;;;;;4982394;28;20027;-73
2021/01/21 07:39:50;;;;;;;35.33;19.15;;;0.70;99.90;;;;;;4983081;28;20072;-74
2021/01/21 07:42:16;;;;;;;24.95;16.05;;;0.70;99.90;;;;;;4984131;28;20084;-73
2021/01/21 07:45:03;;;;;;;26.25;16.63;;;0.80;99.90;;;;;;4983685;28;20117;-73
2021/01/21 07:47:33;;;;;;;25.05;17.05;;;0.70;99.90;;;;;;4982312;28;20030;-73
2021/01/21 07:50:21;;;;;;;24.23;17.08;;;0.70;99.90;;;;;;4982391;28;20034;-73
2021/01/21 07:52:51;;;;;;;28.52;18.73;;;0.70;99.90;;;;;;4983484;28;20469;-74
2021/01/21 07:55:37;;;;;;;29.63;17.88;;;0.70;99.90;;;;;;4982595;28;20030;-76
2021/01/21 07:58:35;;;;;;;34.10;19.08;;;0.80;99.90;;;;;;4983821;28;20064;-73
2021/01/21 08:01:06;;;;;;;28.38;18.63;;;0.80;99.90;;;;;;4983226;28;20046;-73
2021/01/21 08:03:42;;;;;;;30.17;17.75;;;0.80;99.90;;;;;;4983523;28;20030;-75
2021/01/21 08:06:25;;;;;;;30.52;18.98;;;0.70;99.90;;;;;;4983679;28;20030;-73
2021/01/21 08:08:54;;;;;;;27.67;17.67;;;0.70;99.90;;;;;;4983118;28;20045;-74
2021/01/21 08:11:21;;;;;;;28.60;18.08;;;0.70;99.90;;;;;;4982487;28;20073;-73
2021/01/21 08:13:55;;;;;;;25.75;18.08;;;0.60;99.90;;;;;;4982507;28;20524;-73
2021/01/21 08:16:20;;;;;;;26.58;17.25;;;0.70;99.90;;;;;;4986466;28;20038;-74
2021/01/21 08:18:46;;;;;;;26.73;17.63;;;0.60;99.90;;;;;;4986409;28;20101;-76
2021/01/21 08:21:25;;;;;;;28.80;17.67;;;0.60;99.90;;;;;;4986519;28;20034;-74
2021/01/21 08:24:02;;;;;;;28.40;18.27;;;0.70;99.90;;;;;;4987070;28;20636;-74
2021/01/21 08:26:33;;;;;;;28.70;19.75;;;0.70;99.90;;;;;;4986699;28;20098;-74
2021/01/21 08:28:59;;;;;;;30.45;19.05;;;0.80;99.90;;;;;;4986244;28;20100;-73
2021/01/21 08:31:47;;;;;;;29.83;19.92;;;0.70;99.90;;;;;;4986498;28;20034;-73
2021/01/21 08:34:23;;;;;;;30.52;19.52;;;0.70;99.90;;;;;;4986447;28;20133;-72
2021/01/21 08:36:49;;;;;;;31.52;19.55;;;0.70;99.90;;;;;;4986886;28;20752;-75
2021/01/21 08:39:15;;;;;;;36.25;22.45;;;0.70;99.90;;;;;;4987071;28;20060;-74
2021/01/21 08:41:44;;;;;;;30.65;20.73;;;0.80;99.90;;;;;;4986033;28;20034;-73
2021/01/21 08:44:19;;;;;;;34.33;19.50;;;0.90;99.90;;;;;;4987294;28;20038;-79
2021/01/21 08:47:01;;;;;;;26.38;18.65;;;0.80;99.90;;;;;;4968376;28;20101;-75
2021/01/21 08:49:28;;;;;;;36.35;21.50;;;0.90;99.90;;;;;;4967646;28;20041;-75
2021/01/21 08:52:10;;;;;;;35.65;23.63;;;0.80;99.90;;;;;;4967539;28;20029;-75
2021/01/21 08:54:36;;;;;;;31.55;21.25;;;0.90;99.90;;;;;;4970142;28;20561;-77
2021/01/21 08:57:08;;;;;;;36.35;21.38;;;1.00;99.90;;;;;;4967518;28;20106;-75
2021/01/21 08:59:35;;;;;;;34.33;21.08;;;1.00;99.90;;;;;;4965991;28;20401;-75
2021/01/21 09:02:03;;;;;;;33.30;22.13;;;0.90;99.90;;;;;;4972964;28;20035;-75
2021/01/21 09:04:36;;;;;;;31.70;19.17;;;0.90;99.90;;;;;;4985953;28;20453;-75
2021/01/21 09:07:04;;;;;;;29.30;20.65;;;0.90;99.90;;;;;;4984848;28;20038;-75
2021/01/21 09:09:33;;;;;;;35.72;21.02;;;0.90;99.90;;;;;;4986326;28;20034;-75
2021/01/21 09:12:14;;;;;;;35.10;21.80;;;0.90;99.90;;;;;;4986188;28;20030;-75
2021/01/21 09:14:41;;;;;;;31.70;20.98;;;0.90;99.90;;;;;;4985556;28;20485;-75
2021/01/21 09:17:17;;;;;;;34.90;21.40;;;0.90;99.90;;;;;;4985232;28;20125;-76
2021/01/21 09:19:45;;;;;;;40.63;24.67;;;1.00;99.90;;;;;;4984903;28;20045;-75
2021/01/21 09:22:16;;;;;;;42.90;24.48;;;0.90;99.90;;;;;;4985935;28;20638;-75
2021/01/21 09:24:59;;;;;;;35.45;23.05;;;1.00;99.90;;;;;;4985457;28;20023;-75
2021/01/21 09:27:26;;;;;;;38.38;23.63;;;0.90;99.90;;;;;;4985066;28;20026;-75
2021/01/21 09:30:15;;;;;;;38.83;21.77;;;1.00;99.90;;;;;;4984700;28;20125;-75
2021/01/21 09:32:42;;;;;;;35.45;22.08;;;1.00;99.90;;;;;;4985011;28;20058;-76
2021/01/21 09:35:13;;;;;;;35.75;23.38;;;1.00;99.90;;;;;;4985224;28;20493;-75
2021/01/21 09:37:41;;;;;;;32.95;20.58;;;1.10;99.90;;;;;;4984200;28;20058;-76
2021/01/21 09:40:15;;;;;;;35.67;21.45;;;1.10;99.90;;;;;;4984023;28;20077;-75
2021/01/21 09:42:40;;;;;;;35.45;23.00;;;1.00;99.90;;;;;;4985838;28;20105;-75
2021/01/21 09:45:08;;;;;;;36.38;24.10;;;1.00;99.90;;;;;;4984767;28;20106;-77
2021/01/21 09:47:34;;;;;;;37.50;22.42;;;1.10;99.90;;;;;;4984852;28;20069;-75
2021/01/21 09:50:00;;;;;;;37.70;23.45;;;1.10;99.90;;;;;;4984325;28;20022;-75
2021/01/21 09:52:26;;;;;;;37.92;22.83;;;1.10;99.90;;;;;;4983712;28;20045;-75
2021/01/21 09:54:52;;;;;;;39.60;24.38;;;1.00;99.90;;;;;;4970537;28;20039;-75
2021/01/21 09:57:18;;;;;;;39.03;24.58;;;1.00;99.90;;;;;;4983472;28;20049;-76
2021/01/21 09:59:43;;;;;;;37.15;24.10;;;1.00;99.90;;;;;;4984331;28;20060;-75
2021/01/21 10:02:09;;;;;;;34.78;22.02;;;1.00;99.90;;;;;;4983485;28;20105;-76
2021/01/21 10:04:36;;;;;;;41.00;24.85;;;1.10;99.90;;;;;;4984656;28;20062;-75
2021/01/21 10:07:03;;;;;;;36.47;23.30;;;1.00;99.90;;;;;;4985200;28;20038;-75
2021/01/21 10:09:29;;;;;;;37.50;24.08;;;1.00;99.90;;;;;;4983252;28;20053;-75
2021/01/21 10:11:54;;;;;;;108.22;31.50;;;0.90;99.90;;;;;;4985117;28;20547;-76
2021/01/21 10:14:20;;;;;;;39.03;24.55;;;0.80;99.90;;;;;;4984946;28;20462;-77
2021/01/21 10:16:46;;;;;;;40.03;24.42;;;0.90;99.90;;;;;;4985239;28;20022;-75
2021/01/21 10:19:12;;;;;;;37.50;23.88;;;0.90;99.90;;;;;;4985145;28;20034;-75
2021/01/21 10:21:37;;;;;;;39.28;23.25;;;1.00;99.90;;;;;;4985225;28;20019;-75
2021/01/21 10:24:04;;;;;;;33.78;20.77;;;1.00;99.90;;;;;;4983610;28;20032;-75
2021/01/21 10:26:30;;;;;;;33.28;19.67;;;1.00;99.90;;;;;;4983758;28;20038;-75
2021/01/21 10:28:55;;;;;;;51.20;26.92;;;1.00;99.90;;;;;;4984843;28;20026;-75
2021/01/21 10:31:21;;;;;;;45.65;26.70;;;1.00;99.90;;;;;;4985164;28;20027;-75
2021/01/21 10:33:47;;;;;;;41.58;24.20;;;0.90;99.90;;;;;;4984536;28;20798;-75
2021/01/21 10:36:12;;;;;;;35.13;21.88;;;1.00;99.90;;;;;;4982067;28;20066;-76
2021/01/21 10:38:40;;;;;;;34.28;21.05;;;1.00;99.90;;;;;;4983461;28;20018;-75
2021/01/21 10:41:07;;;;;;;34.78;21.25;;;0.90;99.90;;;;;;4984642;28;20026;-76
2021/01/21 10:43:32;;;;;;;36.30;22.73;;;0.90;99.90;;;;;;4984467;28;20027;-76
2021/01/21 10:45:58;;;;;;;35.47;22.23;;;0.80;99.90;;;;;;4984804;28;20392;-75
2021/01/21 10:48:24;;;;;;;35.30;23.58;;;0.80;99.90;;;;;;4966579;28;20031;-75
2021/01/21 10:50:50;;;;;;;45.28;27.85;;;0.90;99.90;;;;;;4964946;28;20027;-75
2021/01/21 10:53:15;;;;;;;153.65;80.32;;;0.90;99.90;;;;;;4965257;28;20039;-75
2021/01/21 10:55:41;;;;;;;92.43;48.67;;;0.80;99.90;;;;;;4965155;28;20097;-75
2021/01/21 10:58:07;;;;;;;40.03;23.92;;;0.90;99.90;;;;;;4977031;28;20045;-75
2021/01/21 11:00:33;;;;;;;62.80;35.38;;;0.90;99.90;;;;;;4983014;28;20100;-74
2021/01/21 11:02:59;;;;;;;35.92;22.42;;;0.90;99.90;;;;;;4984213;28;20031;-76
2021/01/21 11:05:24;;;;;;;34.33;21.33;;;1.00;99.90;;;;;;4984284;28;20528;-76
2021/01/21 11:07:50;;;;;;;32.90;21.75;;;1.00;99.90;;;;;;4983954;28;20528;-75
2021/01/21 11:10:16;;;;;;;41.83;20.92;;;1.10;99.90;;;;;;4984467;28;20031;-76
2021/01/21 11:12:44;;;;;;;36.28;21.60;;;1.20;99.90;;;;;;4985503;28;20792;-76
2021/01/21 11:15:10;;;;;;;31.65;19.48;;;1.30;99.90;;;;;;4984448;28;20018;-76
2021/01/21 11:17:35;;;;;;;29.42;19.30;;;1.30;99.90;;;;;;4984881;28;20779;-75
2021/01/21 11:20:02;;;;;;;36.75;20.60;;;1.40;99.90;;;;;;4984461;28;20035;-75
2021/01/21 11:22:27;;;;;;;32.03;21.17;;;1.50;99.90;;;;;;4985071;28;20058;-76
2021/01/21 11:24:53;;;;;;;41.15;24.48;;;1.40;99.90;;;;;;4983891;28;20058;-76
2021/01/21 11:27:19;;;;;;;43.83;25.75;;;1.30;99.90;;;;;;4984393;28;20110;-77
2021/01/21 11:29:45;;;;;;;39.97;25.15;;;1.10;99.90;;;;;;4983319;28;20082;-77
2021/01/21 11:32:11;;;;;;;199.35;44.85;;;1.00;99.90;;;;;;4983369;28;20027;-75
2021/01/21 11:34:36;;;;;;;40.40;26.25;;;0.90;99.90;;;;;;4982185;28;20069;-75
2021/01/21 11:37:02;;;;;;;43.22;27.30;;;0.80;99.90;;;;;;4984397;28;20027;-77
2021/01/21 11:39:28;;;;;;;62.50;35.33;;;0.80;99.90;;;;;;4984123;28;20354;-77
2021/01/21 11:41:53;;;;;;;49.75;29.95;;;0.90;99.90;;;;;;4983989;28;20030;-76
2021/01/21 11:44:19;;;;;;;51.10;26.85;;;1.00;99.90;;;;;;4983330;28;20499;-75
2021/01/21 11:46:45;;;;;;;43.22;25.33;;;1.10;99.90;;;;;;4983899;28;20034;-75
2021/01/21 11:49:11;;;;;;;39.47;23.80;;;1.10;99.90;;;;;;4984202;28;20085;-75
2021/01/21 11:51:37;;;;;;;35.95;23.35;;;1.10;99.90;;;;;;4986983;28;20604;-76
2021/01/21 11:54:03;;;;;;;42.58;22.73;;;1.10;99.90;;;;;;4983074;28;20099;-75
2021/01/21 11:56:28;;;;;;;36.53;23.63;;;1.30;99.90;;;;;;4987581;28;20037;-75
2021/01/21 11:58:54;;;;;;;39.53;23.45;;;1.30;99.90;;;;;;4987277;28;20038;-75
2021/01/21 12:01:20;;;;;;;41.00;24.35;;;1.30;99.90;;;;;;4987414;28;20019;-76
2021/01/21 12:03:45;;;;;;;32.63;19.55;;;1.20;99.90;;;;;;4986870;28;20053;-77
2021/01/21 12:06:12;;;;;;;25.60;16.73;;;1.20;99.90;;;;;;4986918;28;20038;-76
2021/01/21 12:08:38;;;;;;;24.15;14.93;;;1.20;99.90;;;;;;4986769;28;20104;-77
2021/01/21 12:11:03;;;;;;;22.30;14.63;;;1.30;99.90;;;;;;4986133;28;20371;-75
2021/01/21 12:13:29;;;;;;;35.28;20.65;;;1.30;99.90;;;;;;4987361;28;20030;-76
2021/01/21 12:15:55;;;;;;;34.00;21.33;;;1.30;99.90;;;;;;4987014;28;20366;-76
2021/01/21 12:18:20;;;;;;;30.67;20.65;;;1.30;99.90;;;;;;4986660;28;20373;-76
2021/01/21 12:20:46;;;;;;;34.30;20.15;;;1.30;99.90;;;;;;4987367;28;20033;-77
2021/01/21 12:23:13;;;;;;;35.60;19.77;;;1.20;99.90;;;;;;4986299;28;20026;-75
2021/01/21 12:25:38;;;;;;;31.35;19.92;;;1.20;99.90;;;;;;4986702;28;20019;-75
2021/01/21 12:28:04;;;;;;;36.85;21.90;;;1.20;99.90;;;;;;4986823;28;20030;-77
2021/01/21 12:30:30;;;;;;;38.65;23.73;;;1.10;99.90;;;;;;4987011;28;20042;-76
2021/01/21 12:32:55;;;;;;;35.22;23.50;;;1.00;99.90;;;;;;4986438;28;20050;-75
2021/01/21 12:35:21;;;;;;;40.28;22.45;;;1.00;99.90;;;;;;4986079;28;20054;-75
2021/01/21 12:37:47;;;;;;;36.60;22.67;;;0.90;99.90;;;;;;4986647;28;20037;-75
2021/01/21 12:40:13;;;;;;;37.17;23.83;;;0.90;99.90;;;;;;4987105;28;20038;-76
2021/01/21 12:42:38;;;;;;;36.85;22.77;;;1.00;99.90;;;;;;4985669;28;20057;-75
2021/01/21 12:45:05;;;;;;;37.30;23.48;;;1.10;99.90;;;;;;4986207;28;20062;-77